Time;durP1;ratioP1;P1;durP2;ratioP2;P2;SDS_P1;SDS_P2;PMS_P1;PMS_P2;Temp;Humidity;BMP_temperature;BMP_pressure;BME280_temperature;BME280_humidity;BME280_pressure;Samples;Min_cycle;Max_cycle;Signal;HPM_P1;HPM_P2
2021/10/28 00:12:43;;;;;;;35.42;16.25;;;;;;;;;;5072557;28;21984;-61
2021/10/28 00:15:15;;;;;;;36.45;17.08;;;;;;;;;;5071201;28;20509;-61
2021/10/28 00:20:52;;;;;;;38.08;16.58;;;;;;;;;;4999677;28;20050;-60
2021/10/28 00:23:17;;;;;;;49.20;16.45;;;;;;;;;;5041272;28;20139;-60
2021/10/28 00:25:43;;;;;;;32.55;16.52;;;;;;;;;;5033148;28;20021;-61
2021/10/28 00:28:12;;;;;;;33.05;16.02;;;;;;;;;;5037069;28;20040;-60
2021/10/28 00:30:37;;;;;;;35.30;16.13;;;;;;;;;;5002818;28;20062;-60
2021/10/28 00:33:05;;;;;;;40.15;15.95;;;;;;;;;;5033089;28;20548;-60
2021/10/28 00:35:33;;;;;;;38.28;16.17;;;;;;;;;;5049547;28;20147;-61
2021/10/28 00:38:01;;;;;;;34.10;16.60;;;;;;;;;;5035177;28;20115;-60
2021/10/28 00:40:31;;;;;;;42.45;16.70;;;;;;;;;;5050980;28;20024;-61
2021/10/28 00:42:58;;;;;;;36.85;14.82;;;;;;;;;;5051617;28;20408;-61
2021/10/28 00:45:25;;;;;;;38.60;14.85;;;;;;;;;;5037215;28;22228;-60
2021/10/28 00:47:53;;;;;;;32.75;14.80;;;;;;;;;;5034649;28;20048;-60
2021/10/28 00:50:18;;;;;;;36.10;15.98;;;;;;;;;;5036132;28;20100;-60
2021/10/28 00:52:43;;;;;;;26.80;14.68;;;;;;;;;;5053244;28;20037;-61
2021/10/28 00:55:09;;;;;;;27.38;14.23;;;;;;;;;;5042175;28;20024;-61
2021/10/28 00:57:35;;;;;;;34.38;14.82;;;;;;;;;;5035699;28;20111;-60
2021/10/28 01:00:05;;;;;;;31.02;15.88;;;;;;;;;;5034028;28;20033;-61
2021/10/28 01:02:31;;;;;;;28.42;13.90;;;;;;;;;;5036232;28;20079;-61
2021/10/28 01:04:59;;;;;;;32.58;15.13;;;;;;;;;;5036347;28;20148;-61
2021/10/28 01:07:25;;;;;;;29.13;13.63;;;;;;;;;;5008619;28;20028;-61
2021/10/28 01:09:55;;;;;;;30.17;14.60;;;;;;;;;;5017780;28;20020;-59
2021/10/28 01:12:21;;;;;;;33.05;13.70;;;;;;;;;;5042935;28;20764;-61
2021/10/28 01:14:47;;;;;;;31.77;13.05;;;;;;;;;;5051357;28;20025;-61
2021/10/28 01:17:17;;;;;;;30.88;14.13;;;;;;;;;;5033661;28;20032;-60
2021/10/28 01:19:50;;;;;;;34.30;14.02;;;;;;;;;;5037820;28;20067;-60
2021/10/28 01:22:19;;;;;;;38.50;14.13;;;;;;;;;;5074658;28;20217;-59
2021/10/28 01:24:47;;;;;;;34.05;14.35;;;;;;;;;;5076361;28;20027;-59
2021/10/28 01:27:15;;;;;;;35.55;14.73;;;;;;;;;;5058289;28;20051;-60
2021/10/28 01:29:41;;;;;;;31.20;14.32;;;;;;;;;;5040486;28;20036;-61
2021/10/28 01:32:07;;;;;;;34.67;15.23;;;;;;;;;;5057898;28;20028;-60
2021/10/28 01:34:32;;;;;;;29.50;13.88;;;;;;;;;;5058236;28;20124;-61
2021/10/28 01:36:59;;;;;;;31.83;14.38;;;;;;;;;;5075106;28;20931;-60
2021/10/28 01:39:24;;;;;;;34.10;14.57;;;;;;;;;;5074183;28;20024;-60
2021/10/28 01:41:54;;;;;;;36.25;15.25;;;;;;;;;;5073748;28;20040;-61
2021/10/28 01:44:23;;;;;;;27.58;14.52;;;;;;;;;;5074591;28;20970;-60
2021/10/28 01:46:49;;;;;;;32.63;13.57;;;;;;;;;;5075735;28;20114;-59
2021/10/28 01:49:22;;;;;;;31.73;14.18;;;;;;;;;;5041330;28;20046;-60
2021/10/28 01:51:53;;;;;;;35.08;14.40;;;;;;;;;;5057543;28;20052;-60
2021/10/28 01:54:19;;;;;;;32.17;14.50;;;;;;;;;;5076243;28;20836;-61
2021/10/28 01:56:47;;;;;;;31.98;14.15;;;;;;;;;;5040624;28;20109;-60
2021/10/28 01:59:13;;;;;;;31.25;13.80;;;;;;;;;;5056513;28;20656;-60
2021/10/28 02:01:44;;;;;;;32.97;15.85;;;;;;;;;;5062251;28;22137;-61
2021/10/28 02:04:10;;;;;;;31.73;13.25;;;;;;;;;;5055544;28;20048;-60
2021/10/28 02:06:42;;;;;;;34.63;14.52;;;;;;;;;;5076196;28;20032;-60
2021/10/28 02:09:12;;;;;;;30.83;14.20;;;;;;;;;;5058464;28;20485;-60
2021/10/28 02:11:47;;;;;;;33.10;15.18;;;;;;;;;;5057017;28;20024;-59
2021/10/28 02:14:16;;;;;;;33.15;15.07;;;;;;;;;;5074918;28;20032;-60
2021/10/28 02:16:46;;;;;;;30.05;14.30;;;;;;;;;;5057036;28;20043;-61
2021/10/28 02:19:12;;;;;;;35.65;13.55;;;;;;;;;;5038295;28;20388;-60
2021/10/28 02:21:40;;;;;;;31.80;13.30;;;;;;;;;;5074348;28;20051;-60
2021/10/28 02:24:08;;;;;;;35.00;15.07;;;;;;;;;;5055472;28;20035;-60
2021/10/28 02:26:36;;;;;;;40.67;15.35;;;;;;;;;;5073957;28;20039;-60
2021/10/28 02:29:06;;;;;;;34.78;14.23;;;;;;;;;;5075191;28;20062;-60
2021/10/28 02:31:32;;;;;;;28.50;13.98;;;;;;;;;;5067440;28;20135;-60
2021/10/28 02:33:58;;;;;;;35.75;13.82;;;;;;;;;;5072379;28;20175;-60
2021/10/28 02:36:26;;;;;;;43.92;14.82;;;;;;;;;;5070705;28;20016;-58
2021/10/28 02:38:54;;;;;;;40.67;15.35;;;;;;;;;;5055700;28;20046;-60
2021/10/28 02:41:22;;;;;;;33.30;14.18;;;;;;;;;;5072688;28;20036;-59
2021/10/28 02:43:53;;;;;;;29.30;13.23;;;;;;;;;;5037649;28;20713;-61
2021/10/28 02:46:21;;;;;;;34.70;13.43;;;;;;;;;;5056143;28;20040;-60
2021/10/28 02:48:49;;;;;;;32.63;14.63;;;;;;;;;;5055688;28;20036;-59
2021/10/28 02:51:17;;;;;;;27.58;13.82;;;;;;;;;;5055646;28;20036;-60
2021/10/28 02:53:42;;;;;;;33.17;14.13;;;;;;;;;;5055077;28;20028;-60
2021/10/28 02:56:11;;;;;;;34.33;14.55;;;;;;;;;;5058808;28;20036;-60
2021/10/28 02:58:41;;;;;;;36.20;13.98;;;;;;;;;;5073265;28;20040;-60
2021/10/28 03:01:08;;;;;;;32.67;13.80;;;;;;;;;;5071685;28;20046;-59
2021/10/28 03:03:38;;;;;;;27.40;13.48;;;;;;;;;;5055495;28;20020;-60
2021/10/28 03:06:06;;;;;;;27.10;12.82;;;;;;;;;;5057573;28;20484;-61
2021/10/28 03:08:36;;;;;;;32.42;14.98;;;;;;;;;;5053332;28;20027;-60
2021/10/28 03:11:07;;;;;;;30.48;14.55;;;;;;;;;;5070191;28;20023;-60
2021/10/28 03:13:36;;;;;;;37.38;14.85;;;;;;;;;;5054486;28;20166;-57
2021/10/28 03:16:13;;;;;;;32.97;13.77;;;;;;;;;;5043388;28;20043;-61
2021/10/28 03:27:04;;;;;;;34.47;14.15;;;;;;;;;;5074445;28;20114;-60
2021/10/28 03:29:36;;;;;;;27.20;12.98;;;;;;;;;;5073026;28;20036;-60
2021/10/28 03:32:02;;;;;;;34.97;13.23;;;;;;;;;;5073189;28;20043;-60
2021/10/28 03:34:27;;;;;;;33.03;14.55;;;;;;;;;;5054543;28;20028;-60
2021/10/28 03:37:19;;;;;;;27.65;13.70;;;;;;;;;;5071183;28;20040;-60
2021/10/28 04:05:07;;;;;;;32.30;13.77;;;;;;;;;;5076070;28;20142;-59
2021/10/28 04:07:46;;;;;;;31.80;12.88;;;;;;;;;;5053896;28;20090;-60
2021/10/28 04:28:54;;;;;;;28.80;13.18;;;;;;;;;;5060363;28;20063;-61
2021/10/28 04:31:22;;;;;;;28.13;12.70;;;;;;;;;;5075091;28;20028;-60
2021/10/28 04:33:48;;;;;;;29.40;12.05;;;;;;;;;;5076857;28;20031;-58
2021/10/28 04:36:23;;;;;;;29.85;12.68;;;;;;;;;;5059429;28;20027;-59
2021/10/28 04:38:49;;;;;;;30.83;12.88;;;;;;;;;;5076138;28;20063;-59
2021/10/28 04:41:17;;;;;;;30.77;12.20;;;;;;;;;;5075322;28;20032;-59
2021/10/28 04:43:47;;;;;;;24.02;12.05;;;;;;;;;;5059853;28;20040;-59
2021/10/28 04:46:13;;;;;;;30.50;12.68;;;;;;;;;;5062538;28;20040;-58
2021/10/28 04:48:41;;;;;;;28.02;11.40;;;;;;;;;;5076696;28;20036;-57
2021/10/28 04:51:09;;;;;;;30.30;12.57;;;;;;;;;;5056367;28;20027;-58
2021/10/28 04:53:37;;;;;;;32.13;13.45;;;;;;;;;;5058059;28;20019;-59
2021/10/28 04:56:07;;;;;;;27.58;13.55;;;;;;;;;;5042282;28;20040;-59
2021/10/28 04:58:35;;;;;;;23.00;11.38;;;;;;;;;;5041382;28;20039;-59
2021/10/28 05:01:02;;;;;;;30.50;12.68;;;;;;;;;;5076424;28;20032;-59
2021/10/28 05:03:28;;;;;;;28.02;12.20;;;;;;;;;;5058770;28;20043;-60
2021/10/28 05:05:58;;;;;;;38.17;12.70;;;;;;;;;;5076758;28;20027;-60
2021/10/28 05:08:24;;;;;;;27.92;12.30;;;;;;;;;;5059290;28;20043;-59
2021/10/28 05:10:52;;;;;;;24.67;12.68;;;;;;;;;;5061534;28;20368;-59
2021/10/28 05:13:22;;;;;;;31.95;12.40;;;;;;;;;;5075596;28;20027;-59
2021/10/28 05:15:51;;;;;;;26.75;12.70;;;;;;;;;;5075646;28;20024;-59
2021/10/28 05:18:22;;;;;;;29.17;12.18;;;;;;;;;;5075526;28;20360;-59
2021/10/28 05:20:50;;;;;;;24.35;12.30;;;;;;;;;;5072428;28;20050;-59
2021/10/28 05:23:17;;;;;;;31.02;12.43;;;;;;;;;;5076154;28;20576;-59
2021/10/28 05:25:44;;;;;;;28.63;10.73;;;;;;;;;;5073261;28;20390;-61
2021/10/28 05:28:15;;;;;;;21.15;11.45;;;;;;;;;;5063925;28;20028;-59
2021/10/28 05:30:43;;;;;;;30.02;11.88;;;;;;;;;;5074547;28;20062;-58
2021/10/28 05:33:11;;;;;;;24.77;10.90;;;;;;;;;;5074580;28;20135;-58
2021/10/28 05:35:40;;;;;;;26.48;11.15;;;;;;;;;;5056709;28;20476;-60
2021/10/28 05:38:07;;;;;;;32.78;13.30;;;;;;;;;;5075566;28;20152;-59
2021/10/28 05:40:37;;;;;;;24.88;11.10;;;;;;;;;;5075175;28;20123;-58
2021/10/28 05:43:07;;;;;;;28.00;11.52;;;;;;;;;;5056511;28;20064;-59
2021/10/28 05:45:33;;;;;;;22.40;11.93;;;;;;;;;;5075629;28;20044;-58
2021/10/28 05:48:03;;;;;;;22.90;10.57;;;;;;;;;;5075001;28;20035;-59
2021/10/28 05:50:31;;;;;;;29.48;11.70;;;;;;;;;;5057819;28;20060;-59
2021/10/28 05:53:00;;;;;;;25.73;11.10;;;;;;;;;;5075126;28;20566;-58
2021/10/28 05:55:28;;;;;;;25.35;9.88;;;;;;;;;;5075317;28;22068;-59
2021/10/28 05:57:54;;;;;;;24.58;11.32;;;;;;;;;;5058620;28;20033;-60
2021/10/28 06:00:23;;;;;;;27.77;10.43;;;;;;;;;;5073689;28;20024;-59
2021/10/28 06:02:53;;;;;;;24.40;11.15;;;;;;;;;;5074551;28;20028;-60
2021/10/28 06:05:19;;;;;;;29.27;11.80;;;;;;;;;;5073043;28;20183;-60
2021/10/28 06:07:45;;;;;;;27.88;11.57;;;;;;;;;;5058114;28;20048;-59
2021/10/28 06:10:12;;;;;;;29.02;10.18;;;;;;;;;;5075338;28;20047;-58
2021/10/28 06:12:48;;;;;;;24.05;10.38;;;;;;;;;;5074263;28;20417;-60
2021/10/28 06:15:19;;;;;;;22.33;10.00;;;;;;;;;;5055661;28;20041;-60
2021/10/28 06:17:57;;;;;;;27.15;10.70;;;;;;;;;;5071993;28;20569;-59
2021/10/28 06:20:23;;;;;;;23.02;10.77;;;;;;;;;;5075213;28;20055;-60
2021/10/28 06:22:52;;;;;;;25.85;11.48;;;;;;;;;;5071051;28;20024;-60
2021/10/28 06:25:18;;;;;;;23.88;10.65;;;;;;;;;;5075016;28;20020;-60
2021/10/28 06:27:44;;;;;;;22.67;10.43;;;;;;;;;;5057133;28;20028;-60
2021/10/28 06:30:10;;;;;;;24.15;10.60;;;;;;;;;;5074696;28;20080;-62
2021/10/28 06:32:41;;;;;;;23.85;10.48;;;;;;;;;;5057878;28;20028;-60
2021/10/28 06:35:07;;;;;;;32.15;10.40;;;;;;;;;;5056373;28;20039;-60
2021/10/28 06:37:32;;;;;;;22.98;10.80;;;;;;;;;;5057946;28;20066;-60
2021/10/28 06:39:58;;;;;;;19.83;9.73;;;;;;;;;;5074147;28;20452;-60
2021/10/28 06:42:24;;;;;;;24.75;10.05;;;;;;;;;;5058916;28;20036;-60
2021/10/28 06:44:51;;;;;;;17.10;9.80;;;;;;;;;;5039992;28;20048;-60
2021/10/28 06:47:19;;;;;;;26.30;10.40;;;;;;;;;;5055771;28;20032;-60
2021/10/28 06:49:50;;;;;;;24.38;9.85;;;;;;;;;;5071747;28;20759;-60
2021/10/28 06:52:15;;;;;;;18.73;9.75;;;;;;;;;;5056299;28;20032;-61
2021/10/28 06:54:42;;;;;;;24.08;10.38;;;;;;;;;;5055604;28;20020;-59
2021/10/28 07:02:33;;;;;;;17.95;9.35;;;;;;;;;;5075713;28;20127;-59
2021/10/28 07:04:59;;;;;;;24.08;10.90;;;;;;;;;;5041706;28;20625;-59
2021/10/28 07:07:26;;;;;;;21.08;9.10;;;;;;;;;;5075744;28;20032;-59
2021/10/28 07:15:10;;;;;;;22.63;10.65;;;;;;;;;;5054949;28;20456;-59
2021/10/28 07:31:29;;;;;;;24.67;11.03;;;;;;;;;;5072658;28;20164;-60
2021/10/28 07:34:12;;;;;;;19.95;9.75;;;;;;;;;;5074052;28;20310;-58
2021/10/28 08:14:29;;;;;;;22.70;10.15;;;;;;;;;;5071068;28;20036;-59
2021/10/28 08:22:12;;;;;;;16.75;9.30;;;;;;;;;;5071595;28;20035;-59
2021/10/28 08:30:09;;;;;;;17.95;8.38;;;;;;;;;;5070609;28;20617;-58
2021/10/28 08:32:35;;;;;;;16.13;7.03;;;;;;;;;;5058889;28;20032;-59
2021/10/28 08:35:03;;;;;;;19.60;7.80;;;;;;;;;;5055597;28;20966;-59
2021/10/28 08:37:54;;;;;;;12.40;6.70;;;;;;;;;;5039762;28;20138;-58
2021/10/28 08:40:17;;;;;;;13.20;6.78;;;;;;;;;;5071618;28;20051;-58
2021/10/28 08:42:45;;;;;;;11.88;6.22;;;;;;;;;;5055639;28;20032;-60
2021/10/28 08:45:14;;;;;;;13.75;6.13;;;;;;;;;;5071212;28;20085;-59
2021/10/28 08:47:46;;;;;;;11.68;6.03;;;;;;;;;;5057433;28;20055;-59
2021/10/28 08:50:16;;;;;;;13.95;6.50;;;;;;;;;;5057156;28;20050;-59
2021/10/28 09:25:19;;;;;;;9.90;4.63;;;;;;;;;;5073558;28;20031;-59
2021/10/28 09:30:38;;;;;;;9.88;5.18;;;;;;;;;;5074139;28;20636;-60
2021/10/28 09:33:05;;;;;;;9.80;5.20;;;;;;;;;;5075949;28;20084;-59
2021/10/28 09:35:55;;;;;;;9.05;4.78;;;;;;;;;;5073391;28;20028;-59
2021/10/28 09:45:02;;;;;;;9.10;5.13;;;;;;;;;;5071440;28;20060;-60
2021/10/28 09:50:35;;;;;;;11.18;4.88;;;;;;;;;;5070285;28;20552;-61
2021/10/28 09:53:06;;;;;;;9.93;5.38;;;;;;;;;;5075856;28;20065;-59
2021/10/28 09:58:23;;;;;;;9.60;4.78;;;;;;;;;;5041270;28;20031;-60
2021/10/28 10:00:51;;;;;;;11.90;4.47;;;;;;;;;;5056468;28;20679;-59
2021/10/28 10:03:23;;;;;;;11.32;4.97;;;;;;;;;;5057696;28;20023;-60
2021/10/28 10:06:03;;;;;;;5.10;3.90;;;;;;;;;;5072784;28;20032;-61
2021/10/28 10:08:34;;;;;;;8.55;4.47;;;;;;;;;;5060825;28;20035;-61
2021/10/28 10:11:02;;;;;;;11.07;4.90;;;;;;;;;;5073458;28;20032;-61
2021/10/28 10:13:29;;;;;;;8.35;5.00;;;;;;;;;;5061043;28;20036;-60
2021/10/28 10:15:57;;;;;;;9.05;5.05;;;;;;;;;;5057044;28;21109;-61
2021/10/28 10:18:27;;;;;;;8.30;3.97;;;;;;;;;;5029116;28;20019;-62
2021/10/28 10:21:04;;;;;;;8.63;4.15;;;;;;;;;;5040627;28;20068;-61
2021/10/28 10:23:57;;;;;;;6.45;4.47;;;;;;;;;;5054911;28;20040;-62
2021/10/28 10:26:55;;;;;;;5.97;3.75;;;;;;;;;;5073082;28;20210;-60
2021/10/28 11:04:49;;;;;;;8.05;3.88;;;;;;;;;;5055707;28;20040;-61
2021/10/28 12:17:48;;;;;;;5.78;2.72;;;;;;;;;;5074802;28;20066;-62
2021/10/28 12:45:06;;;;;;;4.82;2.90;;;;;;;;;;5076894;28;20044;-60
2021/10/28 15:30:10;;;;;;;15.48;5.25;;;;;;;;;;5050416;28;20794;-61
2021/10/28 16:23:15;;;;;;;9.23;4.97;;;;;;;;;;5070097;28;20032;-62
2021/10/28 16:25:46;;;;;;;11.75;4.93;;;;;;;;;;5048518;28;20483;-61
2021/10/28 16:28:16;;;;;;;9.63;4.97;;;;;;;;;;5051065;28;20044;-63
2021/10/28 16:30:42;;;;;;;9.93;5.05;;;;;;;;;;5050240;28;20601;-61
2021/10/28 16:33:16;;;;;;;14.82;5.30;;;;;;;;;;5056156;28;20023;-61
2021/10/28 16:35:42;;;;;;;12.05;5.20;;;;;;;;;;5053669;28;20043;-61
2021/10/28 16:38:08;;;;;;;15.13;5.82;;;;;;;;;;5052252;28;20039;-62
2021/10/28 16:40:34;;;;;;;16.02;5.82;;;;;;;;;;5051375;28;20063;-60
2021/10/28 16:43:00;;;;;;;18.20;7.20;;;;;;;;;;5052209;28;20149;-60
2021/10/28 16:45:26;;;;;;;10.60;5.15;;;;;;;;;;5051306;28;20039;-60
2021/10/28 16:47:52;;;;;;;12.75;5.95;;;;;;;;;;5050761;28;20659;-61
2021/10/28 16:50:17;;;;;;;12.75;5.78;;;;;;;;;;5068659;28;20070;-61
2021/10/28 16:52:43;;;;;;;13.35;5.90;;;;;;;;;;5055045;28;20111;-61
2021/10/28 16:55:10;;;;;;;20.83;9.60;;;;;;;;;;5068988;28;20036;-61
2021/10/28 16:57:44;;;;;;;11.95;5.85;;;;;;;;;;5053492;28;20097;-62
2021/10/28 17:00:13;;;;;;;11.57;5.40;;;;;;;;;;5068834;28;20373;-62
2021/10/28 17:02:40;;;;;;;13.48;6.20;;;;;;;;;;5051233;28;20077;-60
2021/10/28 17:05:11;;;;;;;10.98;5.85;;;;;;;;;;5067632;28;20032;-60
2021/10/28 17:07:36;;;;;;;11.02;5.72;;;;;;;;;;5072152;28;20090;-62
2021/10/28 17:10:06;;;;;;;13.23;5.72;;;;;;;;;;5053778;28;20710;-60
2021/10/28 17:12:36;;;;;;;13.38;6.05;;;;;;;;;;5056016;28;20024;-61
2021/10/28 17:15:06;;;;;;;11.75;5.38;;;;;;;;;;5043955;28;20109;-63
2021/10/28 17:17:31;;;;;;;16.50;6.15;;;;;;;;;;5055544;28;20032;-60
2021/10/28 17:20:04;;;;;;;11.15;5.57;;;;;;;;;;5070388;28;20024;-59
2021/10/28 17:22:33;;;;;;;;;;;;;;;;;;5071503;28;20509;-60
2021/10/28 17:24:59;;;;;;;10.60;5.65;;;;;;;;;;5072323;28;20290;-61
2021/10/28 17:27:26;;;;;;;11.40;5.97;;;;;;;;;;5071649;28;20039;-62
2021/10/28 17:29:55;;;;;;;14.65;5.85;;;;;;;;;;5068440;28;20394;-62
2021/10/28 17:32:26;;;;;;;13.02;6.45;;;;;;;;;;5054278;28;20028;-61
2021/10/28 17:34:57;;;;;;;20.02;7.07;;;;;;;;;;5031964;28;20031;-60
2021/10/28 17:37:25;;;;;;;14.15;6.40;;;;;;;;;;5036967;28;20039;-61
2021/10/28 17:39:52;;;;;;;10.75;6.43;;;;;;;;;;5024674;28;20368;-60
2021/10/28 17:42:23;;;;;;;11.77;5.75;;;;;;;;;;5072039;28;20059;-61
2021/10/28 17:44:53;;;;;;;10.75;5.63;;;;;;;;;;5070768;28;20036;-62
2021/10/28 17:47:24;;;;;;;14.25;5.75;;;;;;;;;;5070898;28;21212;-61
2021/10/28 17:49:55;;;;;;;20.25;7.35;;;;;;;;;;5071568;28;20036;-62
2021/10/28 17:52:26;;;;;;;16.40;6.60;;;;;;;;;;5054276;28;20031;-61
2021/10/28 17:54:54;;;;;;;12.45;7.20;;;;;;;;;;5070792;28;20020;-61
2021/10/28 17:57:22;;;;;;;17.85;6.82;;;;;;;;;;5053975;28;20465;-61
2021/10/28 17:59:47;;;;;;;18.08;6.93;;;;;;;;;;5053079;28;20390;-62
2021/10/28 18:02:13;;;;;;;15.30;7.43;;;;;;;;;;5069863;28;20031;-62
2021/10/28 18:04:39;;;;;;;22.23;7.32;;;;;;;;;;5069664;28;20040;-62
2021/10/28 18:07:07;;;;;;;17.90;8.02;;;;;;;;;;5051721;28;20028;-62
2021/10/28 18:09:36;;;;;;;14.60;6.28;;;;;;;;;;5054045;28;20036;-61
2021/10/28 18:12:02;;;;;;;22.15;7.43;;;;;;;;;;5052469;28;20024;-63
2021/10/28 18:14:30;;;;;;;16.40;7.57;;;;;;;;;;5051659;28;20032;-62
2021/10/28 18:16:56;;;;;;;15.57;7.22;;;;;;;;;;5031569;28;20020;-60
2021/10/28 18:19:22;;;;;;;15.15;7.40;;;;;;;;;;5069482;28;20162;-61
2021/10/28 18:21:53;;;;;;;17.83;8.52;;;;;;;;;;5070180;28;20907;-62
2021/10/28 18:24:18;;;;;;;15.77;7.85;;;;;;;;;;5052187;28;20040;-61
2021/10/28 18:26:43;;;;;;;17.30;7.50;;;;;;;;;;5054095;28;20027;-61
2021/10/28 18:29:09;;;;;;;19.60;8.15;;;;;;;;;;5015702;28;20047;-60
2021/10/28 18:31:38;;;;;;;11.40;6.93;;;;;;;;;;5054766;28;20048;-60
2021/10/28 18:34:05;;;;;;;15.73;7.90;;;;;;;;;;5056731;28;20033;-62
2021/10/28 18:36:34;;;;;;;14.10;6.93;;;;;;;;;;5053827;28;21265;-61
2021/10/28 18:39:00;;;;;;;21.65;8.20;;;;;;;;;;5073103;28;20027;-60
2021/10/28 18:41:26;;;;;;;12.73;7.25;;;;;;;;;;5052695;28;20028;-60
2021/10/28 18:43:57;;;;;;;12.88;6.60;;;;;;;;;;5056722;28;20663;-59
2021/10/28 18:46:23;;;;;;;16.70;7.35;;;;;;;;;;5070735;28;20040;-61
2021/10/28 18:48:53;;;;;;;13.52;7.22;;;;;;;;;;5072065;28;20034;-62
2021/10/28 18:51:22;;;;;;;16.58;7.95;;;;;;;;;;5071701;28;20028;-61
2021/10/28 18:53:51;;;;;;;14.48;7.35;;;;;;;;;;5069982;28;20126;-60
2021/10/28 18:56:19;;;;;;;16.42;8.63;;;;;;;;;;5069201;28;20040;-61
2021/10/28 18:58:45;;;;;;;16.52;7.45;;;;;;;;;;5052566;28;20062;-62
2021/10/28 19:01:15;;;;;;;14.38;7.78;;;;;;;;;;5034720;28;21300;-61
2021/10/28 19:03:42;;;;;;;17.75;9.02;;;;;;;;;;5055650;28;20085;-61
2021/10/28 19:06:08;;;;;;;17.33;8.93;;;;;;;;;;5027757;28;20081;-60
2021/10/28 19:08:36;;;;;;;14.10;7.63;;;;;;;;;;5053104;28;20031;-61
2021/10/28 19:11:04;;;;;;;20.45;7.63;;;;;;;;;;5049935;28;20020;-61
2021/10/28 19:13:31;;;;;;;20.27;7.97;;;;;;;;;;5069893;28;20120;-61
2021/10/28 19:16:10;;;;;;;20.77;7.30;;;;;;;;;;5072524;28;20936;-61
2021/10/28 19:18:36;;;;;;;18.92;5.97;;;;;;;;;;5073233;28;20085;-62
2021/10/28 19:21:02;;;;;;;17.75;8.13;;;;;;;;;;5039498;28;20085;-62
2021/10/28 19:23:28;;;;;;;19.70;7.88;;;;;;;;;;5057550;28;20027;-62
2021/10/28 19:25:56;;;;;;;19.52;8.35;;;;;;;;;;5054705;28;20028;-62
2021/10/28 19:28:25;;;;;;;15.05;7.03;;;;;;;;;;5038948;28;20074;-61
2021/10/28 19:30:53;;;;;;;15.15;7.90;;;;;;;;;;5054443;28;20269;-60
2021/10/28 19:33:30;;;;;;;21.55;7.70;;;;;;;;;;5074122;28;20107;-61
2021/10/28 19:36:02;;;;;;;23.15;8.95;;;;;;;;;;5051478;28;20047;-62
2021/10/28 19:46:27;;;;;;;14.68;7.07;;;;;;;;;;5069936;28;20655;-61
2021/10/28 19:48:55;;;;;;;21.23;8.43;;;;;;;;;;5069195;28;20066;-61
2021/10/28 19:51:21;;;;;;;18.08;8.95;;;;;;;;;;5071462;28;20542;-61
2021/10/28 19:53:47;;;;;;;23.42;8.50;;;;;;;;;;5053266;28;20026;-62
2021/10/28 19:56:18;;;;;;;20.63;8.05;;;;;;;;;;5068389;28;20074;-61
2021/10/28 19:58:53;;;;;;;15.95;7.93;;;;;;;;;;5071273;28;20693;-60
2021/10/28 20:14:55;;;;;;;22.00;9.30;;;;;;;;;;5053075;28;20040;-62
2021/10/28 20:22:41;;;;;;;23.60;10.00;;;;;;;;;;5048981;28;20024;-60
2021/10/28 20:25:08;;;;;;;19.23;9.35;;;;;;;;;;5065201;28;20028;-61
2021/10/28 20:27:33;;;;;;;18.63;9.70;;;;;;;;;;5049309;28;20120;-61
2021/10/28 20:30:04;;;;;;;23.20;10.43;;;;;;;;;;5054336;28;20037;-61
2021/10/28 20:32:32;;;;;;;28.00;10.95;;;;;;;;;;5051089;28;20519;-62
2021/10/28 20:35:10;;;;;;;26.20;10.43;;;;;;;;;;5029698;28;20024;-62
2021/10/28 20:37:37;;;;;;;25.30;10.68;;;;;;;;;;5063716;28;20453;-61
2021/10/28 20:40:05;;;;;;;24.17;10.13;;;;;;;;;;5036915;28;20855;-62
2021/10/28 20:42:39;;;;;;;23.92;10.75;;;;;;;;;;5053173;28;20043;-61
2021/10/28 20:45:12;;;;;;;28.00;11.32;;;;;;;;;;5024023;28;20036;-59
2021/10/28 20:47:40;;;;;;;21.75;9.45;;;;;;;;;;5055228;28;20733;-61
2021/10/28 20:50:11;;;;;;;20.98;10.05;;;;;;;;;;5040044;28;20085;-61
2021/10/28 20:52:37;;;;;;;23.23;11.35;;;;;;;;;;5069708;28;20037;-62
2021/10/28 20:55:04;;;;;;;24.67;12.60;;;;;;;;;;5054198;28;20040;-61
2021/10/28 20:57:33;;;;;;;26.45;10.88;;;;;;;;;;5058113;28;20086;-61
2021/10/28 21:00:02;;;;;;;27.83;11.82;;;;;;;;;;5034435;28;20036;-62
2021/10/28 21:02:28;;;;;;;19.10;10.25;;;;;;;;;;5053293;28;20213;-62
2021/10/28 21:04:53;;;;;;;20.92;11.15;;;;;;;;;;5035735;28;20036;-60
2021/10/28 21:07:24;;;;;;;25.67;12.20;;;;;;;;;;5052753;28;20045;-60
2021/10/28 21:09:52;;;;;;;25.95;11.90;;;;;;;;;;5049910;28;20325;-61
2021/10/28 21:12:17;;;;;;;26.35;12.18;;;;;;;;;;5053537;28;20027;-61
2021/10/28 21:14:48;;;;;;;25.60;11.13;;;;;;;;;;5052661;28;20119;-61
2021/10/28 21:17:16;;;;;;;21.92;11.55;;;;;;;;;;5055060;28;20047;-60
2021/10/28 21:19:46;;;;;;;29.65;11.15;;;;;;;;;;5037811;28;20039;-61
2021/10/28 21:22:15;;;;;;;24.20;11.50;;;;;;;;;;5056894;28;20052;-61
2021/10/28 21:24:44;;;;;;;21.95;10.88;;;;;;;;;;5054808;28;20568;-61
2021/10/28 21:27:12;;;;;;;22.10;11.75;;;;;;;;;;5073002;28;20101;-60
2021/10/28 21:29:38;;;;;;;26.65;12.07;;;;;;;;;;5071430;28;20108;-60
2021/10/28 21:32:09;;;;;;;28.25;11.60;;;;;;;;;;5055070;28;20024;-60
2021/10/28 21:34:37;;;;;;;28.25;11.65;;;;;;;;;;5072056;28;20024;-61
2021/10/28 21:37:04;;;;;;;27.90;12.10;;;;;;;;;;5010581;28;20555;-61
2021/10/28 21:39:31;;;;;;;26.92;11.88;;;;;;;;;;5071928;28;20043;-61
2021/10/28 21:41:59;;;;;;;28.00;11.52;;;;;;;;;;5045954;28;20053;-59
2021/10/28 21:44:27;;;;;;;24.30;12.32;;;;;;;;;;5054336;28;20047;-62
2021/10/28 21:46:58;;;;;;;24.60;11.50;;;;;;;;;;5056099;28;20991;-61
2021/10/28 21:49:26;;;;;;;24.02;11.15;;;;;;;;;;5070171;28;20057;-62
2021/10/28 21:51:55;;;;;;;22.75;11.25;;;;;;;;;;5059457;28;20475;-61
2021/10/28 21:57:29;;;;;;;22.75;11.20;;;;;;;;;;5049388;28;20036;-61
2021/10/28 22:00:09;;;;;;;26.05;12.85;;;;;;;;;;5054644;28;20656;-63
2021/10/28 22:24:25;;;;;;;29.83;12.27;;;;;;;;;;5070710;28;20047;-62
2021/10/28 22:26:57;;;;;;;32.40;13.00;;;;;;;;;;5037866;28;20593;-61
2021/10/28 22:29:23;;;;;;;36.17;12.85;;;;;;;;;;5053468;28;20020;-61
2021/10/28 22:31:54;;;;;;;25.45;13.20;;;;;;;;;;5052492;28;20024;-61
2021/10/28 22:34:22;;;;;;;31.13;13.63;;;;;;;;;;5052493;28;21637;-61
2021/10/28 22:37:06;;;;;;;32.85;13.32;;;;;;;;;;5039529;28;20485;-61
2021/10/28 22:39:48;;;;;;;31.75;13.18;;;;;;;;;;5051209;28;20170;-61
2021/10/28 22:42:13;;;;;;;28.63;12.98;;;;;;;;;;5058646;28;20043;-61
2021/10/28 22:44:44;;;;;;;36.95;13.40;;;;;;;;;;5043109;28;20368;-61
2021/10/28 22:47:13;;;;;;;35.28;13.95;;;;;;;;;;5036643;28;20742;-61
2021/10/28 22:49:39;;;;;;;25.13;12.82;;;;;;;;;;5070704;28;20028;-61
2021/10/28 22:52:24;;;;;;;27.65;13.88;;;;;;;;;;5054539;28;20039;-61
2021/10/28 22:54:59;;;;;;;32.15;14.32;;;;;;;;;;5041724;28;20157;-60
2021/10/28 23:00:05;;;;;;;30.38;13.35;;;;;;;;;;5070456;28;20032;-62
2021/10/28 23:21:25;;;;;;;29.17;13.82;;;;;;;;;;5054134;28;20162;-61
2021/10/28 23:23:51;;;;;;;33.30;14.48;;;;;;;;;;5037128;28;20171;-61
2021/10/28 23:26:16;;;;;;;32.55;14.90;;;;;;;;;;5058730;28;20024;-62
2021/10/28 23:28:44;;;;;;;38.00;15.15;;;;;;;;;;5070533;28;20119;-62
2021/10/28 23:31:09;;;;;;;34.10;15.40;;;;;;;;;;5053708;28;20028;-61
2021/10/28 23:33:38;;;;;;;36.80;15.20;;;;;;;;;;5069283;28;20028;-59
2021/10/28 23:36:06;;;;;;;34.67;17.00;;;;;;;;;;5036509;28;20032;-61
2021/10/28 23:38:33;;;;;;;35.83;15.82;;;;;;;;;;5054411;28;20020;-62
2021/10/28 23:40:59;;;;;;;33.45;15.77;;;;;;;;;;5033310;28;20050;-60
2021/10/28 23:43:27;;;;;;;33.72;14.70;;;;;;;;;;5058123;28;20028;-62
2021/10/28 23:45:55;;;;;;;36.17;15.77;;;;;;;;;;5054508;28;20028;-61
2021/10/28 23:48:23;;;;;;;40.25;16.17;;;;;;;;;;5052552;28;20129;-61
2021/10/28 23:50:53;;;;;;;37.45;17.00;;;;;;;;;;5069116;28;20546;-61
2021/10/28 23:53:19;;;;;;;32.92;15.02;;;;;;;;;;5042642;28;20074;-60
2021/10/28 23:55:46;;;;;;;34.67;15.82;;;;;;;;;;5051946;28;20036;-61
2021/10/28 23:58:14;;;;;;;38.28;15.20;;;;;;;;;;5070919;28;20020;-61
